Time;durP1;ratioP1;P1;durP2;ratioP2;P2;SDS_P1;SDS_P2;PMS_P1;PMS_P2;Temp;Humidity;BMP_temperature;BMP_pressure;BME280_temperature;BME280_humidity;BME280_pressure;Samples;Min_cycle;Max_cycle;Signal;HPM_P1;HPM_P2
2023/01/09 00:00:46;;;;;;;3.55;3.42;;;;;;;7.07;100.00;99061.09;6152413;23;20407;-74
2023/01/09 00:03:12;;;;;;;3.65;3.55;;;;;;;6.15;100.00;98932.22;6144853;23;20033;-75
2023/01/09 00:05:39;;;;;;;3.50;3.40;;;;;;;7.01;100.00;99063.25;6146223;23;20032;-76
2023/01/09 00:08:06;;;;;;;3.78;3.67;;;;;;;6.47;100.00;99007.50;6142846;23;20017;-75
2023/01/09 00:10:32;;;;;;;3.58;3.47;;;;;;;6.42;100.00;98983.53;6139621;23;20375;-74
2023/01/09 00:12:58;;;;;;;4.13;3.92;;;;;;;6.84;100.00;99056.53;6147330;23;20025;-77
2023/01/09 00:15:25;;;;;;;3.50;3.40;;;;;;;6.83;100.00;99053.06;6117468;23;20029;-75
2023/01/09 00:17:51;;;;;;;3.60;3.50;;;;;;;5.96;100.00;98916.88;6126950;23;20023;-76
2023/01/09 00:20:18;;;;;;;3.50;3.40;;;;;;;6.82;100.00;99042.75;6120024;23;20119;-73
2023/01/09 00:22:44;;;;;;;3.50;3.40;;;;;;;6.77;100.00;99040.41;6132172;23;20082;-73
2023/01/09 00:25:11;;;;;;;3.40;3.30;;;;;;;6.81;100.00;99041.88;6104007;23;20029;-74
2023/01/09 00:27:37;;;;;;;3.30;3.20;;;;;;;6.75;100.00;99037.91;6155072;23;20094;-75
2023/01/09 00:30:04;;;;;;;3.75;3.65;;;;;;;6.28;100.00;98960.13;6116989;23;20021;-74
2023/01/09 00:32:32;;;;;;;3.60;3.50;;;;;;;6.74;100.00;99049.28;6151864;23;20029;-76
2023/01/09 00:34:58;;;;;;;3.75;3.65;;;;;;;6.26;100.00;98975.81;6117731;23;20025;-76
2023/01/09 00:37:24;;;;;;;3.70;3.60;;;;;;;6.13;100.00;98967.09;6151776;23;20021;-75
2023/01/09 00:40:00;;;;;;;13.88;13.18;;;;;;;6.21;100.00;98975.25;6058811;23;20090;-75
2023/01/09 00:42:34;;;;;;;3.40;3.30;;;;;;;6.59;100.00;99052.81;6078822;23;20013;-73
2023/01/09 00:45:06;;;;;;;3.60;3.50;;;;;;;6.53;100.00;99048.81;6131139;23;20009;-74
2023/01/09 00:47:39;;;;;;;3.40;3.30;;;;;;;6.54;100.00;99057.50;6160580;23;20207;-76
2023/01/09 00:50:10;;;;;;;3.50;3.40;;;;;;;6.47;100.00;99053.59;6113693;23;20295;-74
2023/01/09 00:52:38;;;;;;;3.35;3.25;;;;;;;6.53;100.00;99071.44;6143450;23;20538;-74
2023/01/09 00:55:06;;;;;;;3.50;3.40;;;;;;;6.51;100.00;99073.31;6131827;23;20118;-74
2023/01/09 00:57:32;;;;;;;3.20;3.10;;;;;;;6.49;100.00;99075.19;6145582;23;20029;-75
2023/01/09 00:59:59;;;;;;;3.50;3.40;;;;;;;5.86;100.00;98980.84;6115143;23;20728;-73
2023/01/09 01:02:26;;;;;;;3.30;3.20;;;;;;;5.61;100.00;98934.63;6145318;23;20028;-73
2023/01/09 01:07:38;;;;;;;3.80;3.50;;;;;;;6.38;100.00;99079.28;6141296;23;20025;-74
2023/01/09 01:10:20;;;;;;;3.50;3.40;;;;;;;5.85;100.00;98986.13;6113578;23;20030;-74
2023/01/09 01:12:48;;;;;;;3.40;3.30;;;;;;;6.30;100.00;99070.25;6152768;23;20089;-76
2023/01/09 01:15:15;;;;;;;3.38;3.28;;;;;;;6.18;100.00;99058.81;6119872;23;20022;-74
2023/01/09 01:17:42;;;;;;;3.38;3.28;;;;;;;4.78;100.00;98843.31;6159161;23;20101;-74
2023/01/09 01:20:12;;;;;;;3.33;3.22;;;;;;;6.14;100.00;99075.56;6145981;23;20190;-74
2023/01/09 01:22:41;;;;;;;3.50;3.40;;;;;;;5.81;100.00;99024.53;6157294;23;20195;-75
2023/01/09 01:25:09;;;;;;;3.50;3.40;;;;;;;5.66;100.00;98996.81;6105284;23;20018;-75
2023/01/09 01:27:36;;;;;;;3.55;3.45;;;;;;;5.75;100.00;99015.34;6141780;23;20120;-74
2023/01/09 01:30:03;;;;;;;3.50;3.40;;;;;;;5.90;100.00;99041.38;6151770;23;20156;-73
2023/01/09 01:32:29;;;;;;;3.40;3.30;;;;;;;5.89;100.00;99039.69;6162965;23;20016;-75
2023/01/09 01:34:55;;;;;;;3.47;3.38;;;;;;;6.03;100.00;99033.69;6123364;23;20013;-75
2023/01/09 01:37:22;;;;;;;3.40;3.30;;;;;;;6.10;100.00;99053.25;6111308;23;20028;-74
2023/01/09 01:39:48;;;;;;;3.60;3.50;;;;;;;6.10;100.00;99061.06;6132598;23;20021;-74
2023/01/09 01:42:15;;;;;;;3.58;3.47;;;;;;;5.62;100.00;98985.75;6149055;23;20021;-74
2023/01/09 01:45:14;;;;;;;3.70;3.60;;;;;;;6.19;100.00;99056.13;6119187;23;20518;-75
2023/01/09 01:47:52;;;;;;;3.55;3.45;;;;;;;6.23;100.00;99063.75;6156905;23;20483;-74
2023/01/09 01:50:39;;;;;;;3.50;3.40;;;;;;;5.51;100.00;98947.38;6137603;23;20006;-74
2023/01/09 01:53:13;;;;;;;3.45;3.35;;;;;;;6.03;100.00;99029.31;6151038;23;20033;-75
2023/01/09 01:56:13;;;;;;;3.50;3.40;;;;;;;6.27;100.00;99065.22;6136216;23;20037;-75
2023/01/09 01:58:45;;;;;;;3.50;3.40;;;;;;;6.29;100.00;99074.63;6145600;23;20438;-75
2023/01/09 02:01:12;;;;;;;3.50;3.40;;;;;;;6.28;100.00;99074.72;6143663;23;20812;-74
2023/01/09 02:03:41;;;;;;;3.50;3.40;;;;;;;5.92;100.00;99027.34;6138149;23;20082;-75
2023/01/09 02:06:08;;;;;;;3.60;3.50;;;;;;;6.11;100.00;99066.16;6136332;23;20028;-76
2023/01/09 02:08:35;;;;;;;3.53;3.42;;;;;;;6.12;100.00;99072.22;6119264;23;20022;-74
2023/01/09 02:11:03;;;;;;;3.40;3.30;;;;;;;6.07;100.00;99076.84;6113519;23;20337;-74
2023/01/09 02:13:31;;;;;;;3.80;3.60;;;;;;;6.12;100.00;99093.88;6098559;23;20017;-74
2023/01/09 02:16:10;;;;;;;3.53;3.42;;;;;;;6.09;100.00;99101.03;6148363;23;20025;-74
2023/01/09 02:19:06;;;;;;;3.42;3.33;;;;;;;6.08;100.00;99099.38;6115922;23;20013;-75
2023/01/09 02:22:01;;;;;;;3.20;3.10;;;;;;;5.71;100.00;99020.78;6135276;23;20646;-76
2023/01/09 02:25:13;;;;;;;3.58;3.38;;;;;;;6.14;100.00;99081.59;6112448;23;20022;-74
2023/01/09 02:28:01;;;;;;;3.72;3.50;;;;;;;6.14;100.00;99094.63;6086656;23;20305;-74
2023/01/09 02:30:44;;;;;;;3.50;3.40;;;;;;;5.95;100.00;99061.03;6149243;23;20510;-74
2023/01/09 02:33:28;;;;;;;3.70;3.50;;;;;;;6.12;100.00;99099.09;6116813;23;20420;-75
2023/01/09 02:36:09;;;;;;;3.55;3.45;;;;;;;6.09;100.00;99106.25;6139879;23;20023;-75
2023/01/09 02:38:50;;;;;;;3.20;3.10;;;;;;;5.73;100.00;99064.03;6120786;23;20052;-74
2023/01/09 02:41:24;;;;;;;3.50;3.40;;;;;;;5.14;100.00;98993.72;6145808;23;20029;-74
2023/01/09 02:44:21;;;;;;;3.50;3.40;;;;;;;5.82;100.00;99112.13;6130989;23;20037;-74
2023/01/09 02:47:03;;;;;;;3.60;3.40;;;;;;;5.90;100.00;99115.09;6147637;23;20017;-75
2023/01/09 02:49:32;;;;;;;3.80;3.60;;;;;;;5.55;100.00;99057.28;6121506;23;20026;-76
2023/01/09 02:52:19;;;;;;;3.95;3.75;;;;;;;4.71;100.00;98901.75;6153759;23;20009;-75
2023/01/09 02:55:11;;;;;;;3.30;3.20;;;;;;;6.14;100.00;99123.28;6150160;23;20005;-74
2023/01/09 02:57:56;;;;;;;3.45;3.35;;;;;;;6.23;100.00;99131.47;6148718;23;20364;-75
2023/01/09 03:00:53;;;;;;;3.78;3.58;;;;;;;6.25;100.00;99140.84;6115337;23;20025;-74
2023/01/09 03:03:28;;;;;;;3.67;3.47;;;;;;;6.29;100.00;99144.97;6135256;23;20045;-75
2023/01/09 03:06:09;;;;;;;3.53;3.33;;;;;;;6.41;100.00;99145.16;6115808;23;20050;-74
2023/01/09 03:08:44;;;;;;;3.38;3.28;;;;;;;6.24;100.00;99134.00;6157735;23;20017;-73
2023/01/09 03:11:11;;;;;;;4.78;4.50;;;;;;;6.03;100.00;99101.41;6115417;23;20093;-74
2023/01/09 03:14:03;;;;;;;3.40;3.30;;;;;;;6.45;100.00;99167.50;6150658;23;20482;-74
2023/01/09 03:16:34;;;;;;;3.50;3.40;;;;;;;6.43;100.00;99164.16;6152700;23;20032;-74
2023/01/09 03:19:04;;;;;;;4.47;4.18;;;;;;;6.32;100.00;99188.25;6139961;23;20244;-75
2023/01/09 03:21:32;;;;;;;3.60;3.50;;;;;;;6.26;100.00;99176.41;6149026;23;20016;-74
2023/01/09 03:24:00;;;;;;;3.65;3.55;;;;;;;5.67;100.00;99090.41;6145038;23;20087;-73
2023/01/09 03:26:28;;;;;;;3.53;3.33;;;;;;;6.17;100.00;99177.81;6155681;23;20066;-74
2023/01/09 03:28:55;;;;;;;3.50;3.40;;;;;;;6.08;100.00;99178.31;6145366;23;20021;-74
2023/01/09 03:31:22;;;;;;;3.40;3.30;;;;;;;4.48;100.00;98950.63;6139154;23;20448;-75
2023/01/09 03:33:48;;;;;;;3.50;3.40;;;;;;;5.78;100.00;99173.09;6138206;23;20281;-74
2023/01/09 03:36:16;;;;;;;3.50;3.40;;;;;;;5.76;100.00;99193.16;6147591;23;20021;-75
2023/01/09 03:38:43;;;;;;;3.50;3.40;;;;;;;5.63;100.00;99192.16;6088045;23;20026;-75
2023/01/09 03:41:09;;;;;;;3.50;3.40;;;;;;;5.35;100.00;99171.13;6144747;23;20028;-75
2023/01/09 03:43:36;;;;;;;3.20;3.10;;;;;;;5.01;100.00;99138.31;6147059;23;20541;-77
2023/01/09 03:46:03;;;;;;;3.63;3.53;;;;;;;5.31;100.00;99187.84;6143287;23;20490;-74
2023/01/09 03:48:30;;;;;;;3.40;3.30;;;;;;;5.13;100.00;99188.81;6143866;23;20108;-73
2023/01/09 03:50:57;;;;;;;3.53;3.42;;;;;;;4.69;100.00;99103.66;6142893;23;20027;-73
2023/01/09 03:53:25;;;;;;;3.70;3.50;;;;;;;4.95;100.00;99142.09;6116447;23;20025;-75
2023/01/09 03:55:55;;;;;;;3.72;3.58;;;;;;;4.74;100.00;99128.50;6140448;23;20082;-75
2023/01/09 03:58:22;;;;;;;3.40;3.30;;;;;;;4.42;100.00;99083.44;6089808;23;20018;-74
2023/01/09 04:00:49;;;;;;;3.30;3.20;;;;;;;4.59;100.00;99114.56;6136603;23;20021;-75
2023/01/09 04:03:18;;;;;;;3.35;3.25;;;;;;;4.03;100.00;99027.50;6117078;23;20025;-74
2023/01/09 04:05:45;;;;;;;3.50;3.40;;;;;;;4.90;100.00;99161.47;6133052;23;20090;-75
2023/01/09 04:08:12;;;;;;;3.38;3.28;;;;;;;4.29;100.00;99083.25;6114628;23;20037;-75
2023/01/09 04:10:38;;;;;;;3.47;3.38;;;;;;;4.39;100.00;99113.03;6122469;23;20009;-75
2023/01/09 04:13:05;;;;;;;3.10;3.00;;;;;;;4.46;100.00;99113.53;6141595;23;20016;-74
2023/01/09 04:15:31;;;;;;;3.15;3.05;;;;;;;4.54;100.00;99126.13;6142311;23;20024;-76
2023/01/09 04:17:58;;;;;;;3.33;3.22;;;;;;;4.75;100.00;99157.91;6146191;23;20015;-74
2023/01/09 04:20:24;;;;;;;3.50;3.40;;;;;;;4.68;100.00;99167.78;6146383;23;20029;-75
2023/01/09 04:22:50;;;;;;;3.60;3.50;;;;;;;4.11;100.00;99084.19;6142676;23;20066;-76
2023/01/09 04:25:17;;;;;;;3.13;3.03;;;;;;;4.51;100.00;99160.91;6113944;23;20080;-74
2023/01/09 04:27:43;;;;;;;3.40;3.30;;;;;;;4.64;100.00;99184.47;6085923;23;20068;-76
2023/01/09 04:30:10;;;;;;;3.30;3.20;;;;;;;4.61;100.00;99189.84;6144196;23;20033;-75
2023/01/09 04:32:36;;;;;;;3.30;3.20;;;;;;;4.62;100.00;99177.69;6114822;23;20009;-76
2023/01/09 04:35:03;;;;;;;3.50;3.40;;;;;;;4.60;100.00;99191.56;6131225;23;20183;-75
2023/01/09 04:37:30;;;;;;;3.40;3.30;;;;;;;2.86;100.00;98911.50;6078228;23;20038;-76
2023/01/09 04:39:56;;;;;;;4.25;3.05;;;;;;;2.90;100.00;98935.53;6121849;23;20020;-76
2023/01/09 04:42:23;;;;;;;3.28;3.17;;;;;;;4.62;100.00;99201.06;6120490;23;20538;-75
2023/01/09 04:44:52;;;;;;;5.88;4.00;;;;;;;4.21;100.00;99134.75;6140282;23;20019;-75
2023/01/09 04:47:20;;;;;;;3.20;3.10;;;;;;;4.57;100.00;99185.69;6118480;23;20017;-75
2023/01/09 04:49:46;;;;;;;3.35;3.25;;;;;;;4.73;100.00;99210.00;6148988;23;20065;-75
2023/01/09 04:52:13;;;;;;;3.72;3.53;;;;;;;3.40;100.00;98986.59;6112707;23;20029;-75
2023/01/09 04:54:39;;;;;;;3.40;3.30;;;;;;;4.77;100.00;99219.31;6153368;23;20017;-74
2023/01/09 04:57:06;;;;;;;3.30;3.20;;;;;;;4.14;100.00;99129.00;6110448;23;20036;-76
2023/01/09 04:59:32;;;;;;;3.35;3.25;;;;;;;4.99;100.00;99233.75;6126532;23;20029;-78
2023/01/09 05:01:59;;;;;;;3.30;3.20;;;;;;;5.06;100.00;99237.72;6146830;23;20172;-74
2023/01/09 05:04:25;;;;;;;4.32;3.67;;;;;;;5.15;100.00;99247.66;6146018;23;20557;-76
2023/01/09 05:06:52;;;;;;;3.35;3.25;;;;;;;5.26;100.00;99251.44;6137379;23;20025;-75
2023/01/09 05:09:19;;;;;;;3.10;3.00;;;;;;;5.33;100.00;99270.97;6155833;23;20521;-74
2023/01/09 05:11:45;;;;;;;3.65;3.35;;;;;;;4.99;100.00;99203.41;6095649;23;20025;-76
2023/01/09 05:14:12;;;;;;;3.50;3.40;;;;;;;5.05;100.00;99210.06;6148845;23;20024;-76
2023/01/09 05:16:38;;;;;;;3.20;3.10;;;;;;;5.49;100.00;99282.25;6148287;23;20021;-75
2023/01/09 05:19:05;;;;;;;3.22;3.13;;;;;;;5.33;100.00;99247.56;6154642;23;20009;-75
2023/01/09 05:21:31;;;;;;;3.10;3.00;;;;;;;5.59;100.00;99287.78;6118170;23;20389;-75
2023/01/09 05:23:57;;;;;;;3.20;3.10;;;;;;;5.66;100.00;99293.50;6153137;23;20076;-74
2023/01/09 05:26:24;;;;;;;3.65;3.45;;;;;;;5.48;100.00;99264.94;6128097;23;20564;-76
2023/01/09 05:28:52;;;;;;;3.30;3.20;;;;;;;5.70;100.00;99295.03;6116034;23;20448;-76
2023/01/09 05:31:19;;;;;;;15.30;3.67;;;;;;;5.19;100.00;99217.09;6118375;23;20499;-74
2023/01/09 05:33:46;;;;;;;3.40;3.30;;;;;;;5.19;100.00;99215.34;6145253;23;20025;-75
2023/01/09 05:36:12;;;;;;;3.50;3.40;;;;;;;5.68;100.00;99286.47;6148085;23;20419;-74
2023/01/09 05:38:39;;;;;;;3.40;3.30;;;;;;;5.72;100.00;99296.59;6121409;23;20021;-76
2023/01/09 05:41:06;;;;;;;3.50;3.30;;;;;;;5.23;100.00;99235.97;6136610;23;21121;-76
2023/01/09 05:43:33;;;;;;;3.50;3.40;;;;;;;5.46;100.00;99264.19;6115267;23;20038;-74
2023/01/09 05:45:59;;;;;;;3.67;3.47;;;;;;;5.36;100.00;99239.59;6145961;23;20032;-75
2023/01/09 05:48:26;;;;;;;3.35;3.25;;;;;;;5.58;100.00;99276.53;6122191;23;20021;-75
2023/01/09 05:50:52;;;;;;;3.60;3.50;;;;;;;5.54;100.00;99269.00;6130441;23;20036;-75
2023/01/09 05:53:19;;;;;;;3.50;3.40;;;;;;;5.78;100.00;99303.25;6110912;23;20022;-74
2023/01/09 05:55:45;;;;;;;3.58;3.47;;;;;;;5.35;100.00;99227.50;6138819;23;20601;-74
2023/01/09 05:58:11;;;;;;;3.60;3.50;;;;;;;5.77;100.00;99296.34;6121913;23;20025;-76
2023/01/09 06:00:38;;;;;;;3.75;3.55;;;;;;;5.34;100.00;99225.84;6147358;23;20219;-75
2023/01/09 06:03:04;;;;;;;3.50;3.40;;;;;;;5.76;100.00;99298.13;6120247;23;20022;-75
2023/01/09 06:05:31;;;;;;;3.20;3.10;;;;;;;5.18;100.00;99212.81;6150702;23;20047;-76
2023/01/09 06:07:58;;;;;;;3.50;3.40;;;;;;;5.18;100.00;99215.44;6120864;23;20012;-75
2023/01/09 06:10:24;;;;;;;4.43;4.03;;;;;;;5.74;100.00;99305.16;6152223;23;20024;-76
2023/01/09 06:12:51;;;;;;;4.28;3.97;;;;;;;5.73;100.00;99300.03;6112614;23;20033;-75
2023/01/09 06:15:19;;;;;;;3.75;3.65;;;;;;;5.57;100.00;99274.00;6137886;23;20083;-75
2023/01/09 06:17:45;;;;;;;3.60;3.45;;;;;;;5.74;100.00;99299.13;6093268;23;20025;-77
2023/01/09 06:20:12;;;;;;;6.53;3.78;;;;;;;5.38;100.00;99235.16;6112614;23;20041;-76
2023/01/09 06:22:39;;;;;;;3.53;3.42;;;;;;;5.32;100.00;99223.31;6144454;23;20071;-76
2023/01/09 06:25:06;;;;;;;3.65;3.45;;;;;;;5.36;100.00;99245.63;6153520;23;21103;-75
2023/01/09 06:27:32;;;;;;;3.33;3.20;;;;;;;5.33;100.00;99256.22;6115113;23;20096;-74
2023/01/09 06:29:58;;;;;;;3.50;3.40;;;;;;;5.35;100.00;99243.97;6143975;23;20085;-75
2023/01/09 06:32:25;;;;;;;4.13;3.83;;;;;;;5.71;100.00;99288.88;6115647;23;20756;-74
2023/01/09 06:34:51;;;;;;;3.58;3.47;;;;;;;5.68;100.00;99291.66;6153951;23;20076;-78
2023/01/09 06:37:18;;;;;;;3.30;3.20;;;;;;;5.71;100.00;99297.53;6116371;23;20029;-74
2023/01/09 06:39:44;;;;;;;3.38;3.28;;;;;;;5.73;100.00;99300.91;6147865;23;20808;-75
2023/01/09 06:42:10;;;;;;;3.67;3.58;;;;;;;5.19;100.00;99217.09;6149180;23;20024;-76
2023/01/09 06:44:37;;;;;;;4.40;3.78;;;;;;;5.72;100.00;99303.59;6147951;23;20020;-76
2023/01/09 06:47:04;;;;;;;3.45;3.35;;;;;;;5.06;100.00;99203.91;6146011;23;20097;-74
2023/01/09 06:49:30;;;;;;;3.40;3.30;;;;;;;4.18;100.00;99057.84;6141911;23;20025;-76
2023/01/09 06:51:56;;;;;;;4.15;3.95;;;;;;;5.32;100.00;99243.28;6112924;23;20045;-74
2023/01/09 06:54:23;;;;;;;3.90;3.70;;;;;;;5.35;100.00;99237.91;6135065;23;20022;-76
2023/01/09 06:56:50;;;;;;;4.22;4.03;;;;;;;5.79;100.00;99302.31;6136615;23;20096;-75
2023/01/09 06:59:16;;;;;;;3.40;3.30;;;;;;;5.36;100.00;99237.00;6123148;23;20098;-74
2023/01/09 07:01:43;;;;;;;3.67;3.58;;;;;;;4.91;100.00;99166.59;6111771;23;20100;-75
2023/01/09 07:04:09;;;;;;;3.80;3.60;;;;;;;5.75;100.00;99293.00;6128378;23;20033;-76
2023/01/09 07:06:37;;;;;;;6.50;4.57;;;;;;;5.83;100.00;99306.41;6115658;23;20577;-76
2023/01/09 07:09:04;;;;;;;3.95;3.70;;;;;;;5.10;100.00;99191.59;6121510;23;20023;-76
2023/01/09 07:11:32;;;;;;;3.45;3.35;;;;;;;5.82;100.00;99290.91;6144522;23;20016;-75
2023/01/09 07:13:58;;;;;;;3.75;3.63;;;;;;;5.32;100.00;99223.31;6148757;23;20001;-76
2023/01/09 07:16:25;;;;;;;4.85;3.78;;;;;;;5.77;100.00;99297.22;6146241;23;20023;-77
2023/01/09 07:18:51;;;;;;;3.90;3.70;;;;;;;5.34;100.00;99226.69;6148169;23;20044;-76
2023/01/09 07:21:17;;;;;;;3.50;3.40;;;;;;;5.33;100.00;99212.00;6115819;23;20021;-74
2023/01/09 07:23:44;;;;;;;3.38;3.28;;;;;;;5.78;100.00;99290.22;6139950;23;20021;-74
2023/01/09 07:26:10;;;;;;;4.32;3.85;;;;;;;5.85;100.00;99309.78;6110311;23;20041;-75
2023/01/09 07:28:37;;;;;;;4.00;3.65;;;;;;;5.86;100.00;99301.06;6144671;23;20183;-75
2023/01/09 07:31:06;;;;;;;3.88;3.67;;;;;;;5.82;100.00;99289.13;6114629;23;20607;-74
2023/01/09 07:33:33;;;;;;;5.65;3.90;;;;;;;5.79;100.00;99289.28;6090906;23;20021;-75
2023/01/09 07:36:00;;;;;;;3.97;3.75;;;;;;;5.42;100.00;99243.66;6089520;23;20577;-76
2023/01/09 07:38:26;;;;;;;4.03;3.83;;;;;;;5.91;100.00;99303.41;6119155;23;20035;-76
2023/01/09 07:40:53;;;;;;;3.80;3.70;;;;;;;5.67;100.00;99266.53;6123162;23;20776;-75
2023/01/09 07:43:19;;;;;;;4.00;3.80;;;;;;;4.31;100.00;99042.47;6134716;23;20570;-76
2023/01/09 07:45:46;;;;;;;3.55;3.45;;;;;;;5.79;100.00;99297.09;6109601;23;20025;-76
2023/01/09 07:48:13;;;;;;;3.67;3.58;;;;;;;5.49;100.00;99252.78;6148627;23;20021;-75
2023/01/09 07:50:39;;;;;;;3.60;3.50;;;;;;;5.67;100.00;99275.19;6142302;23;20048;-76
2023/01/09 07:53:06;;;;;;;4.00;3.80;;;;;;;6.09;100.00;99327.63;6142797;23;20030;-74
2023/01/09 07:55:32;;;;;;;3.97;3.78;;;;;;;5.61;100.00;99259.91;6142274;23;20082;-72
2023/01/09 07:57:58;;;;;;;5.57;4.03;;;;;;;6.11;100.00;99334.41;6134363;23;20483;-73
2023/01/09 08:00:25;;;;;;;3.90;3.70;;;;;;;6.11;100.00;99333.56;6139324;23;20024;-74
2023/01/09 08:02:52;;;;;;;4.22;3.92;;;;;;;5.76;100.00;99271.25;6140463;23;20020;-72
2023/01/09 08:05:20;;;;;;;4.97;3.78;;;;;;;6.31;100.00;99341.09;6108552;23;20056;-73
2023/01/09 08:07:48;;;;;;;3.90;3.70;;;;;;;6.11;100.00;99297.13;6119231;23;20029;-72
2023/01/09 08:10:18;;;;;;;4.47;4.28;;;;;;;6.28;100.00;99312.63;6129451;23;20602;-73
2023/01/09 08:12:46;;;;;;;3.55;3.45;;;;;;;5.92;100.00;99251.25;6139689;23;20018;-72
2023/01/09 08:15:13;;;;;;;3.53;3.42;;;;;;;6.62;100.00;99356.78;6148854;23;20082;-72
2023/01/09 08:17:42;;;;;;;3.83;3.63;;;;;;;6.53;100.00;99342.50;6148238;23;20026;-76
2023/01/09 08:20:15;;;;;;;7.88;3.83;;;;;;;6.34;100.00;99301.03;6108111;23;20032;-74
2023/01/09 08:22:43;;;;;;;3.80;3.60;;;;;;;6.38;100.00;99294.72;6122902;23;20570;-75
2023/01/09 08:25:09;;;;;;;3.55;3.35;;;;;;;6.67;100.00;99336.50;6122187;23;20018;-72
2023/01/09 08:27:38;;;;;;;3.55;3.45;;;;;;;6.92;100.00;99367.22;6112095;23;20036;-73
2023/01/09 08:30:05;;;;;;;3.90;3.65;;;;;;;6.74;100.00;99328.22;6090024;23;20040;-74
2023/01/09 08:32:31;;;;;;;4.00;3.45;;;;;;;7.03;100.00;99367.41;6121217;23;20028;-74
2023/01/09 08:34:58;;;;;;;3.72;3.63;;;;;;;6.90;100.00;99335.16;6111164;23;20017;-71
2023/01/09 08:37:24;;;;;;;3.70;3.50;;;;;;;7.19;100.00;99357.72;6151167;23;20027;-73
2023/01/09 08:39:52;;;;;;;3.70;3.50;;;;;;;7.30;100.00;99375.38;6113729;23;20069;-74
2023/01/09 08:47:49;;;;;;;3.67;3.53;;;;;;;7.73;98.96;99377.16;6152717;23;20021;-72
2023/01/09 08:50:16;;;;;;;4.10;3.90;;;;;;;7.82;98.27;99376.59;6147069;23;20013;-74
2023/01/09 08:52:42;;;;;;;4.53;4.22;;;;;;;7.88;97.57;99376.19;6144531;23;20038;-71
2023/01/09 08:55:09;;;;;;;6.60;3.90;;;;;;;7.89;96.15;99371.81;6115509;23;20029;-71
2023/01/09 08:57:35;;;;;;;13.55;4.28;;;;;;;7.94;95.73;99373.19;6132002;23;20027;-77
2023/01/09 09:00:03;;;;;;;4.07;3.85;;;;;;;6.22;93.76;99086.34;6138338;23;20095;-74
2023/01/09 09:02:29;;;;;;;4.28;3.97;;;;;;;6.25;94.61;99101.78;6145920;23;20186;-74
2023/01/09 09:04:56;;;;;;;3.97;3.78;;;;;;;6.39;94.77;99137.44;6115937;23;20092;-75
2023/01/09 09:07:26;;;;;;;17.15;4.28;;;;;;;7.94;94.55;99372.38;6146076;23;20029;-71
2023/01/09 09:09:53;;;;;;;3.92;3.78;;;;;;;7.93;95.02;99379.34;6118121;23;20052;-73
2023/01/09 09:12:21;;;;;;;10.93;4.07;;;;;;;7.91;94.77;99373.38;6143473;23;20044;-72
2023/01/09 09:17:32;;;;;;;3.85;3.72;;;;;;;7.72;95.82;99351.97;6150639;23;20032;-72
2023/01/09 09:19:59;;;;;;;4.55;4.25;;;;;;;7.37;96.32;99315.81;6113689;23;20041;-71
2023/01/09 09:22:25;;;;;;;3.78;3.67;;;;;;;7.72;96.36;99371.09;6126761;23;20021;-70
2023/01/09 09:24:52;;;;;;;4.15;3.85;;;;;;;7.59;96.98;99349.25;6111725;23;20034;-73
2023/01/09 09:27:19;;;;;;;6.35;4.00;;;;;;;7.30;97.69;99319.75;6141866;23;20037;-72
2023/01/09 09:29:45;;;;;;;4.20;3.85;;;;;;;7.61;97.90;99360.44;6089239;23;20017;-73
2023/01/09 09:32:12;;;;;;;4.20;3.95;;;;;;;7.47;98.71;99369.13;6137333;23;20058;-72
2023/01/09 09:34:38;;;;;;;5.68;4.05;;;;;;;7.27;99.38;99332.97;6145518;23;20492;-72
2023/01/09 09:37:05;;;;;;;3.72;3.60;;;;;;;7.54;100.00;99387.88;6134742;23;20017;-72
2023/01/09 09:39:31;;;;;;;4.63;4.38;;;;;;;7.33;100.00;99364.72;6118338;23;20453;-72
2023/01/09 09:45:36;;;;;;;4.18;3.97;;;;;;;7.62;100.00;99406.53;6116037;23;20058;-71
2023/01/09 09:48:14;;;;;;;4.10;3.90;;;;;;;7.59;100.00;99410.16;6118962;23;20209;-72
2023/01/09 09:50:43;;;;;;;4.00;3.78;;;;;;;7.66;100.00;99428.91;6121617;23;20025;-73
2023/01/09 09:53:19;;;;;;;4.07;3.88;;;;;;;7.71;100.00;99412.97;6128257;23;20427;-73
2023/01/09 09:55:48;;;;;;;3.90;3.70;;;;;;;7.63;100.00;99418.63;6128470;23;20033;-72
2023/01/09 09:58:27;;;;;;;3.90;3.70;;;;;;;7.83;100.00;99435.72;6141137;23;20467;-71
2023/01/09 10:00:54;;;;;;;4.18;3.97;;;;;;;7.56;99.97;99388.63;6154288;23;20226;-72
2023/01/09 10:03:45;;;;;;;5.00;3.72;;;;;;;7.26;100.00;99344.34;6114556;23;20032;-72
2023/01/09 10:06:17;;;;;;;3.55;3.45;;;;;;;7.78;100.00;99441.22;6153911;23;20025;-72
2023/01/09 10:09:27;;;;;;;4.10;3.90;;;;;;;7.73;100.00;99440.66;6112528;23;20212;-72
2023/01/09 10:12:00;;;;;;;4.00;3.78;;;;;;;7.54;100.00;99430.50;6118466;23;20376;-72
2023/01/09 10:14:26;;;;;;;4.00;3.80;;;;;;;7.56;100.00;99451.28;6114560;23;20026;-72
2023/01/09 10:17:28;;;;;;;3.67;3.58;;;;;;;7.57;100.00;99447.72;6144444;23;20059;-72
2023/01/09 10:20:08;;;;;;;3.60;3.50;;;;;;;7.54;100.00;99456.59;5973400;23;20039;-73
2023/01/09 10:22:46;;;;;;;4.32;4.05;;;;;;;7.57;100.00;99447.72;6108879;23;20028;-73
2023/01/09 10:25:27;;;;;;;4.00;3.80;;;;;;;7.54;100.00;99446.16;6089677;23;20077;-73
2023/01/09 10:28:11;;;;;;;3.70;3.60;;;;;;;7.53;100.00;99449.69;6122300;23;20013;-72
2023/01/09 10:31:13;;;;;;;4.00;3.80;;;;;;;7.60;100.00;99450.16;6114672;23;20092;-73
2023/01/09 10:34:01;;;;;;;3.70;3.50;;;;;;;7.62;100.00;99448.31;6147982;23;20020;-73
2023/01/09 10:36:44;;;;;;;4.00;3.80;;;;;;;7.64;100.00;99445.59;6141546;23;20033;-73
2023/01/09 10:39:23;;;;;;;3.83;3.67;;;;;;;7.68;100.00;99479.28;6125376;23;20369;-71
2023/01/09 10:41:57;;;;;;;5.95;4.85;;;;;;;6.75;100.00;99303.81;6132508;23;20286;-73
2023/01/09 10:44:37;;;;;;;10.07;3.88;;;;;;;7.62;100.00;99440.47;6134420;23;20063;-72
2023/01/09 10:47:10;;;;;;;3.70;3.60;;;;;;;7.15;100.00;99366.66;6152740;23;20037;-73
2023/01/09 10:49:39;;;;;;;4.45;4.15;;;;;;;7.69;100.00;99461.81;6111516;23;20569;-73
2023/01/09 10:52:19;;;;;;;4.50;4.20;;;;;;;7.51;100.00;99435.03;6129622;23;20106;-73
2023/01/09 10:54:54;;;;;;;3.72;3.63;;;;;;;7.37;100.00;99407.16;6125001;23;20399;-71
2023/01/09 10:57:36;;;;;;;3.70;3.55;;;;;;;7.76;100.00;99466.59;6157410;23;20522;-72
2023/01/09 11:00:04;;;;;;;3.88;3.72;;;;;;;7.42;100.00;99399.91;6106928;23;20023;-73
2023/01/09 11:02:34;;;;;;;4.00;3.80;;;;;;;7.84;100.00;99473.09;6148699;23;20027;-73
2023/01/09 11:05:00;;;;;;;3.97;3.78;;;;;;;7.73;99.92;99447.66;6135224;23;20017;-73
2023/01/09 11:07:35;;;;;;;4.00;3.80;;;;;;;7.87;99.70;99470.31;6152014;23;20415;-73
2023/01/09 11:10:06;;;;;;;4.10;3.90;;;;;;;7.89;98.79;99461.44;6138945;23;20069;-73
2023/01/09 11:12:34;;;;;;;4.00;3.83;;;;;;;7.86;97.95;99448.59;6138274;23;20017;-72
2023/01/09 11:15:19;;;;;;;5.25;4.93;;;;;;;7.95;97.62;99462.84;6112330;23;20032;-72
2023/01/09 11:18:14;;;;;;;5.22;4.90;;;;;;;7.96;97.20;99441.03;6149357;23;20084;-73
2023/01/09 11:20:41;;;;;;;4.20;3.92;;;;;;;7.97;96.26;99459.22;6132733;23;20022;-73
2023/01/09 11:23:23;;;;;;;4.18;3.90;;;;;;;8.01;96.77;99459.03;6140125;23;20096;-73
2023/01/09 11:25:55;;;;;;;4.20;4.00;;;;;;;8.02;95.74;99458.09;6134834;23;20013;-72
2023/01/09 11:28:21;;;;;;;4.40;4.10;;;;;;;8.01;96.22;99441.56;6120797;23;20028;-72
2023/01/09 11:30:54;;;;;;;11.07;4.20;;;;;;;8.07;95.51;99469.94;6114232;23;20025;-72
2023/01/09 11:33:24;;;;;;;3.90;3.70;;;;;;;7.94;95.19;99429.84;6150625;23;20028;-71
2023/01/09 11:36:02;;;;;;;3.90;3.70;;;;;;;8.10;94.72;99459.31;6085498;23;20620;-71
2023/01/09 11:38:42;;;;;;;4.60;4.25;;;;;;;7.90;94.58;99426.56;6121145;23;20192;-72
2023/01/09 11:41:16;;;;;;;4.15;3.90;;;;;;;7.88;93.52;99420.59;6110934;23;20033;-72
2023/01/09 11:43:45;;;;;;;4.32;4.03;;;;;;;8.01;92.37;99444.19;6154659;23;20025;-71
2023/01/09 11:46:30;;;;;;;3.80;3.60;;;;;;;8.12;91.78;99457.44;6141743;23;20036;-72
2023/01/09 11:48:58;;;;;;;4.00;3.80;;;;;;;8.24;92.41;99452.38;6143938;23;20036;-72
2023/01/09 11:51:34;;;;;;;4.10;3.90;;;;;;;8.20;90.72;99462.19;6129044;23;20080;-73
2023/01/09 11:54:04;;;;;;;4.10;3.90;;;;;;;7.85;90.05;99381.59;6110469;23;20021;-71
2023/01/09 11:56:31;;;;;;;3.88;3.72;;;;;;;7.85;88.52;99378.16;6116808;23;20653;-72
2023/01/09 11:58:59;;;;;;;4.00;3.80;;;;;;;8.44;87.70;99478.16;6078091;23;20614;-73
2023/01/09 12:01:44;;;;;;;3.78;3.58;;;;;;;8.11;87.62;99440.06;6119189;23;20042;-71
2023/01/09 12:04:22;;;;;;;3.70;3.60;;;;;;;8.30;87.78;99468.53;6104909;23;20459;-71